Home > Products > Valid Products > TAF

000
FTUS44 KJAN 310500
TAFMEI
TAF
KMEI 310529Z 3106/0106 00000KT P6SM BKN200
     FM311500 36005KT P6SM SCT080 BKN100
     FM010000 02003KT P6SM BKN090=



000
FTUS44 KJAN 310500
TAFJAN
TAF
KJAN 310529Z 3106/0106 06003KT P6SM OVC200
     FM311200 04005KT P6SM OVC100
     FM311900 02007KT P6SM VCSH BKN080 OVC100
     FM010000 08003KT P6SM BKN090=



000
FTUS44 KJAN 310500
TAFGLH
TAF
KGLH 310529Z 3106/0106 02003KT P6SM OVC100
     FM311300 06005KT P6SM VCSH OVC090
     FM311600 05007KT 5SM RA BR BKN030 OVC050
     FM312200 06004KT P6SM VCSH OVC100=



000
FTUS44 KJAN 310500
TAFHBG
TAF
KHBG 310529Z 3106/0106 00000KT P6SM SCT200
     FM311500 02005KT P6SM SCT080 SCT100
     FM010000 08003KT P6SM SCT090=



000
FTUS44 KJAN 310500
TAFGWO
TAF
KGWO 310529Z 3106/0106 00000KT P6SM OVC110
     FM311400 06003KT P6SM VCSH OVC090
     FM311700 04006KT 5SM RA BR BKN030 OVC050
     FM312300 06003KT P6SM VCSH OVC100=



000
FTUS44 KJAN 310000 AAA
TAFGWO
TAF AMD
KGWO 310013Z 3100/3124 36004KT P6SM BKN150
     FM310300 04002KT P6SM VCSH SCT080 OVC100
     FM311300 05005KT P6SM VCSH OVC080=



000
FTUS44 KJAN 310000 AAA
TAFGLH
TAF AMD
KGLH 310013Z 3100/3124 36004KT P6SM VCSH BKN150
     FM310300 04002KT P6SM VCSH SCT080 OVC100
     FM311300 05005KT P6SM VCSH OVC080=



000
FTUS44 KJAN 310007
TAFGWO

TAF
KGWO 302320Z 3100/3124 36004KT P6SM BKN150
     FM310300 04002KT P6SM VCSH SCT080 OVC100
     FM311300 05005KT P6SM VCSH OVC080=



000
FTUS44 KJAN 310005
TAFGWO

TAF
KGWO 302320Z 3100/0100 36004KT P6SM BKN150
     FM310300 04002KT P6SM VCSH SCT080 OVC100
     FM311300 05005KT P6SM VCSH OVC080=



000
FTUS44 KJAN 310010
TAFHBG

KHBG 302320Z 3100/3124 02004KT P6SM BKN200
     FM310600 36004KT P6SM BKN150
     FM311800 04005KT P6SM VCSH SCT080 BKN150=



000
FTUS44 KJAN 310009
TAFJAN

KJAN 302320Z 3100/3124 02004KT P6SM BKN200
     FM310600 36004KT P6SM BKN150
     FM311800 04005KT P6SM VCSH SCT080 BKN150=



000
FTUS44 KJAN 310007
TAFGLH

TAF
KGLH 302320Z 3100/3124 36004KT P6SM VCSH BKN150
     FM310300 04002KT P6SM VCSH SCT080 OVC100
     FM311300 05005KT P6SM VCSH OVC080=



000
FTUS44 KJAN 310009
TAFMEI

KMEI 302320Z 3100/3124 02004KT P6SM BKN200
     FM310600 36004KT P6SM BKN150
     FM311800 04005KT P6SM VCSH SCT080 BKN150=



000
FTUS44 KJAN 310004
TAFGLH

TAF
KGLH 302320Z 3100/0100 36004KT P6SM VCSH BKN150
     FM310300 04002KT P6SM VCSH SCT080 OVC100
     FM311300 05005KT P6SM VCSH OVC080=



000
FTUS44 KJAN 301700
TAFGWO
TAF
KGWO 301723Z 3018/3118 VRB03KT P6SM FEW150=



000
FTUS44 KJAN 301700
TAFMEI
TAF
KMEI 301723Z 3018/3118 02004KT P6SM SKC=



000
FTUS44 KJAN 301700
TAFHBG
TAF
KHBG 301723Z 3018/3118 04004KT P6SM SKC=



000
FTUS44 KJAN 301700
TAFJAN
TAF
KJAN 301723Z 3018/3118 03004KT P6SM SKC=



000
FTUS44 KJAN 301700
TAFGLH
TAF
KGLH 301723Z 3018/3118 VRB04KT P6SM SCT150=



000
FTUS44 KJAN 301100
TAFHBG
TAF
KHBG 301120Z 3012/3112 01005KT P6SM SKC
     FM310000 00000KT P6SM SCT250=



000
FTUS44 KJAN 301100
TAFMEI
TAF
KMEI 301120Z 3012/3112 02005KT P6SM SCT250
     FM310400 00000KT 6SM BR BKN250=



000
FTUS44 KJAN 301100
TAFJAN
TAF
KJAN 301120Z 3012/3112 00000KT P6SM SKC
     FM301400 01008KT P6SM SCT250
     FM310200 00000KT P6SM BKN250=



000
FTUS44 KJAN 301100
TAFGLH
TAF
KGLH 301120Z 3012/3112 03004KT P6SM SCT250
     FM301800 36006KT P6SM SCT100 BKN250=



000
FTUS44 KJAN 301100
TAFGWO
TAF
KGWO 301120Z 3012/3112 VRB03KT P6SM SCT250
     FM302000 36005KT P6SM BKN250=



000
FTUS44 KJAN 300500
TAFJAN
TAF
KJAN 300520Z 3006/3106 00000KT P6SM SCT250
     FM301400 02007KT P6SM BKN250=



000
FTUS44 KJAN 300500
TAFHBG
TAF
KHBG 300520Z 3006/3106 01005KT P6SM SCT250=



000
FTUS44 KJAN 300500
TAFGWO
TAF
KGWO 300520Z 3006/3106 00000KT P6SM SCT250
     FM301400 01005KT P6SM BKN250=



000
FTUS44 KJAN 300500
TAFMEI
TAF
KMEI 300520Z 3006/3106 36003KT 6SM BR SKC
     FM301300 36006KT P6SM SCT250=



000
FTUS44 KJAN 300500
TAFGLH
TAF
KGLH 300520Z 3006/3106 00000KT P6SM SCT250
     FM301400 03006KT P6SM BKN250=



000
FTUS44 KJAN 292300
TAFMEI
TAF
KMEI 292320Z 3000/3024 35011KT P6SM FEW060
     FM300100 36003KT P6SM SKC
     FM300900 00000KT 5SM BR SKC
     FM301200 36005KT P6SM SKC=



000
FTUS44 KJAN 292300
TAFGLH
TAF
KGLH 292320Z 3000/3024 01008KT P6SM SKC
     FM300100 04002KT P6SM SKC
     FM301300 VRB04KT P6SM SCT250=



000
FTUS44 KJAN 292300
TAFHBG
TAF
KHBG 292320Z 3000/3024 35006KT P6SM SKC
     FM301100 00000KT 5SM BR SKC
     FM301300 05004KT P6SM SKC=



000
FTUS44 KJAN 292300
TAFJAN
TAF
KJAN 292320Z 3000/3024 36014G19KT P6SM FEW050
     FM300100 02003KT P6SM SKC
     FM301300 01007KT P6SM SCT250=



000
FTUS44 KJAN 292300
TAFGWO
TAF
KGWO 292320Z 3000/3024 36011KT P6SM SKC
     FM300100 00000KT P6SM SKC
     FM301300 VRB04KT P6SM SCT250=



000
FTUS44 KJAN 291700
TAFGWO
TAF
KGWO 291728Z 2918/3018 02008KT P6SM FEW040
     FM300100 00000KT P6SM SKC
     FM301100 00000KT 5SM BR SKC
     FM301300 VRB04KT P6SM SCT250=



000
FTUS44 KJAN 291700
TAFHBG
TAF
KHBG 291728Z 2918/3018 35006KT P6SM SCT050
     FM301100 00000KT 5SM BR SKC
     FM301300 05004KT P6SM SKC=



000
FTUS44 KJAN 291700
TAFMEI
TAF
KMEI 291728Z 2918/3018 35009KT P6SM BKN045
     FM300100 36003KT P6SM SKC
     FM300900 00000KT 5SM BR SKC
     FM301200 36005KT P6SM SKC=



000
FTUS44 KJAN 291700
TAFGLH
TAF
KGLH 291728Z 2918/3018 03009KT P6SM SKC
     FM300100 04002KT P6SM SKC
     FM301100 00000KT 5SM BR SKC
     FM301300 VRB04KT P6SM SCT250=



000
FTUS44 KJAN 291700
TAFJAN
TAF
KJAN 291728Z 2918/3018 35009KT P6SM SCT050
     FM300100 02003KT P6SM SKC=



000
FTUS44 KJAN 291100
TAFMEI
TAF
KMEI 291120Z 2912/3012 35003KT P6SM SKC
     FM291600 35009KT P6SM SCT050
     FM300100 36003KT P6SM SKC=



000
FTUS44 KJAN 291100
TAFGLH
TAF
KGLH 291120Z 2912/3012 00000KT 6SM BR SKC
     FM291300 36008KT P6SM SCT050
     FM300100 02003KT P6SM SKC
     FM300900 00000KT 4SM BR SKC=



000
FTUS44 KJAN 291100
TAFGWO
TAF
KGWO 291120Z 2912/3012 00000KT P6SM FEW050
     FM291330 01007KT P6SM SCT050
     FM300100 00000KT P6SM SKC=



000
FTUS44 KJAN 291100
TAFJAN
TAF
KJAN 291120Z 2912/3012 36005KT P6SM SKC
     FM291700 36011KT P6SM SCT050
     FM300200 02003KT P6SM SKC=



000
FTUS44 KJAN 291100
TAFHBG
TAF
KHBG 291120Z 2912/3012 34005KT P6SM SCT250
     FM300100 00000KT P6SM SKC=



000
FTUS44 KJAN 291000 AAA
TAFGWO
TAF AMD
KGWO 291010Z 2910/3006 00000KT 3SM BR SCT050
      TEMPO 2910/2912 1SM BR
     FM291300 01007KT P6SM SKC
     FM300200 01003KT P6SM SKC=



000
FTUS44 KJAN 290900 AAA
TAFGLH
TAF AMD
KGLH 290950Z 2910/3006 00000KT 3SM BR SKC
      TEMPO 2910/2912 1SM BR
     FM291300 01008KT P6SM SKC
     FM300200 02003KT P6SM SKC=



000
FTUS44 KJAN 290500
TAFJAN
TAF
KJAN 290520Z 2906/3006 36003KT P6SM SCT250
     FM291400 36010KT P6SM SCT050
     FM300200 02003KT P6SM SKC=



000
FTUS44 KJAN 290500
TAFGLH
TAF
KGLH 290520Z 2906/3006 00000KT P6SM SCT050
     FM291300 01008KT P6SM SKC
     FM300200 02003KT P6SM SKC=



000
FTUS44 KJAN 290500
TAFGWO
TAF
KGWO 290520Z 2906/3006 00000KT P6SM SCT050
     FM291300 01007KT P6SM SKC
     FM300200 01003KT P6SM SKC=



000
FTUS44 KJAN 290500
TAFMEI
TAF
KMEI 290520Z 2906/3006 35003KT 6SM BR SCT250
     FM291400 36009KT P6SM SCT050
     FM300100 02003KT P6SM SKC=



000
FTUS44 KJAN 290500
TAFHBG
TAF
KHBG 290520Z 2906/3006 32003KT 6SM BR SCT250
     FM291400 36006KT P6SM SCT050
     FM300100 00000KT P6SM SKC=



000
FTUS44 KJAN 282300
TAFGWO
TAF
KGWO 282320Z 2900/2924 35006KT P6SM SKC=



000
FTUS44 KJAN 282300
TAFMEI
TAF
KMEI 282320Z 2900/2924 27010KT P6SM SCT070
     FM290200 34003KT P6SM SKC
     FM290800 00000KT 4SM BR SKC
     FM291300 36005KT P6SM SKC=



000
FTUS44 KJAN 282300
TAFGLH
TAF
KGLH 282320Z 2900/2924 35006KT P6SM SKC=



000
FTUS44 KJAN 282300
TAFJAN
TAF
KJAN 282320Z 2900/2924 35004KT P6SM SKC=



000
FTUS44 KJAN 282300
TAFHBG
TAF
KHBG 282320Z 2900/2924 28012G16KT P6SM FEW045 SCT050 SCT100
     FM290200 31003KT P6SM SKC
     FM291000 32004KT 4SM BR SKC
     FM291300 35005KT P6SM SKC=



000
FTUS44 KJAN 281700 AAA
TAFMEI
TAF AMD
KMEI 281734Z 2818/2918 25004KT P6SM SCT050
     FM290000 33011KT P6SM SCT250
     FM290200 34003KT P6SM SKC
     FM290800 00000KT 4SM BR SKC
     FM291300 36005KT P6SM SKC=



000
FTUS44 KJAN 281700 AAA
TAFHBG
TAF AMD
KHBG 281733Z 2818/2918 29012KT P6SM VCTS SCT040CB BKN250
     FM290200 31003KT P6SM SKC
     FM291000 32004KT 4SM BR SKC
     FM291300 35005KT P6SM SKC=



000
FTUS44 KJAN 281700
TAFJAN
TAF
KJAN 281720Z 2818/2918 33011KT P6SM SCT050
     FM290000 34003KT P6SM SKC=



000
FTUS44 KJAN 281700
TAFGWO
TAF
KGWO 281720Z 2818/2918 35008KT P6SM SCT050
     FM290100 34003KT P6SM SKC=



000
FTUS44 KJAN 281700
TAFMEI
TAF
KMEI 281720Z 2818/2918 25004KT P6SM SCT050
     FM290000 33011KT P6SM SCT250
     FM290200 34003KT P6SM SKC=



000
FTUS44 KJAN 281700
TAFGLH
TAF
KGLH 281720Z 2818/2918 36010KT P6SM SCT050
     FM290100 36003KT P6SM SKC=



000
FTUS44 KJAN 281700
TAFHBG
TAF
KHBG 281720Z 2818/2918 29012KT P6SM VCTS SCT040CB BKN250
     FM290200 31003KT P6SM SKC=



000
FTUS44 KJAN 281500 AAA
TAFMEI
TAF AMD
KMEI 281502Z 2815/2912 30009KT P6SM BKN020
     FM281630 25004KT P6SM VCTS SCT040CB BKN250
     FM290000 33011KT P6SM SCT250
     FM290200 34003KT P6SM SKC=



000
FTUS44 KJAN 281500 AAA
TAFJAN
TAF AMD
KJAN 281500Z 2815/2912 25005KT P6SM BKN015
     FM281700 33011KT P6SM VCTS SCT050CB
     FM290000 34003KT P6SM SKC=



000
FTUS44 KJAN 281100
TAFHBG
TAF
KHBG 281120Z 2812/2912 27008KT P6SM SCT250
     FM281600 29012KT P6SM VCTS SCT040CB BKN250
     FM290200 31003KT P6SM SKC=



000
FTUS44 KJAN 281100
TAFGLH
TAF
KGLH 281120Z 2812/2912 35006KT P6SM BKN040
     FM281400 36010KT P6SM BKN250
     FM290100 36003KT P6SM SKC=



000
FTUS44 KJAN 281100
TAFJAN
TAF
KJAN 281120Z 2812/2912 25005KT P6SM VCTS SCT040CB BKN250
     FM281600 33011KT P6SM SCT250
     FM290200 34003KT P6SM SKC=



000
FTUS44 KJAN 281100
TAFGWO
TAF
KGWO 281120Z 2812/2912 35008KT P6SM SCT040
     FM290100 34003KT P6SM SKC=



000
FTUS44 KJAN 281100
TAFMEI
TAF
KMEI 281120Z 2812/2912 25004KT P6SM VCTS SCT040CB BKN250
     FM281700 33011KT P6SM SCT250
     FM290200 34003KT P6SM SKC=



    US Dept of Commerce
    National Oceanic and Atmospheric Administration
    National Weather Service
    1325 East West Highway
    Silver Spring, MD 20910
    Page Author: NWS Internet Services Team
Disclaimer
Information Quality
Credits
Glossary
Privacy Policy
Freedom of Information Act (FOIA)
About Us
Career Opportunities